createdAt,value
2022-11-22T00:00:21.102Z,3.37
2022-11-22T00:03:07.831Z,3.32
2022-11-22T00:05:34.265Z,3.39
2022-11-22T00:08:00.761Z,3.47
2022-11-22T00:10:26.988Z,3.39
2022-11-22T00:12:54.067Z,3.58
2022-11-22T00:15:20.295Z,3.58
2022-11-22T00:17:46.719Z,3.58
2022-11-22T00:20:13.570Z,3.49
2022-11-22T00:22:44.479Z,3.39
2022-11-22T00:25:12.353Z,3.44
2022-11-22T00:27:39.180Z,3.41
2022-11-22T00:30:05.898Z,3.43
2022-11-22T00:32:32.758Z,3.43
2022-11-22T00:34:58.973Z,3.37
2022-11-22T00:37:25.403Z,3.25
2022-11-22T00:39:51.492Z,3.34
2022-11-22T00:42:17.991Z,3.31
2022-11-22T00:44:44.080Z,3.22
2022-11-22T00:47:10.481Z,3.15
2022-11-22T00:49:36.631Z,3.16
2022-11-22T00:52:03.029Z,3.27
2022-11-22T00:54:29.145Z,3.22
2022-11-22T00:56:55.547Z,3.25
2022-11-22T00:59:21.750Z,3.32
2022-11-22T01:01:48.181Z,3.28
2022-11-22T01:04:14.288Z,3.36
2022-11-22T01:06:40.753Z,3.38
2022-11-22T01:09:07.838Z,3.36
2022-11-22T01:11:34.200Z,3.30
2022-11-22T01:14:00.286Z,3.36
2022-11-22T01:16:26.686Z,3.45
2022-11-22T01:18:52.811Z,3.50
2022-11-22T01:21:19.217Z,3.40
2022-11-22T01:23:45.341Z,3.46
2022-11-22T01:26:11.826Z,3.47
2022-11-22T01:28:37.962Z,3.60
2022-11-22T01:31:04.309Z,3.56
2022-11-22T01:33:30.426Z,3.45
2022-11-22T01:35:57.729Z,3.55
2022-11-22T01:38:23.890Z,3.49
2022-11-22T01:40:50.295Z,3.46
2022-11-22T01:43:22.608Z,3.41
2022-11-22T01:45:53.282Z,3.36
2022-11-22T01:48:31.095Z,3.33
2022-11-22T01:51:02.731Z,3.23
2022-11-22T01:53:34.312Z,3.23
2022-11-22T01:56:03.372Z,3.20
2022-11-22T01:58:33.037Z,3.25
2022-11-22T02:01:00.883Z,3.19
2022-11-22T02:03:28.810Z,3.21
2022-11-22T02:05:55.918Z,3.29
2022-11-22T02:08:55.636Z,3.19
2022-11-22T02:11:23.991Z,3.13
2022-11-22T02:13:51.800Z,3.20
2022-11-22T02:16:19.150Z,3.17
2022-11-22T02:18:45.368Z,3.24
2022-11-22T02:21:11.869Z,3.34
2022-11-22T02:23:45.334Z,3.35
2022-11-22T02:26:12.696Z,3.43
2022-11-22T02:28:39.932Z,3.33
2022-11-22T02:31:06.594Z,3.41
2022-11-22T02:33:32.887Z,3.28
2022-11-22T02:35:59.677Z,3.29
2022-11-22T02:38:30.874Z,3.23
2022-11-22T02:41:08.150Z,3.26
2022-11-22T02:43:39.454Z,3.29
2022-11-22T02:46:11.925Z,3.23
2022-11-22T02:48:42.115Z,3.26
2022-11-22T02:51:08.767Z,3.28
2022-11-22T02:53:34.920Z,3.29
2022-11-22T02:56:01.288Z,3.31
2022-11-22T02:58:27.767Z,3.36
2022-11-22T03:00:54.407Z,3.42
2022-11-22T03:03:20.655Z,3.35
2022-11-22T03:05:46.987Z,3.31
2022-11-22T03:08:13.024Z,3.43
2022-11-22T03:10:39.408Z,3.34
2022-11-22T03:13:05.560Z,3.22
2022-11-22T03:15:32.048Z,3.22
2022-11-22T03:17:59.383Z,3.30
2022-11-22T03:20:26.542Z,3.11
2022-11-22T03:22:53.041Z,3.14
2022-11-22T03:25:19.614Z,3.30
2022-11-22T03:27:47.667Z,3.28
2022-11-22T03:30:14.794Z,3.30
2022-11-22T03:32:41.354Z,3.29
2022-11-22T03:35:08.421Z,3.19
2022-11-22T03:37:34.576Z,3.25
2022-11-22T03:40:00.955Z,3.36
2022-11-22T03:42:27.119Z,3.34
2022-11-22T03:44:53.561Z,3.27
2022-11-22T03:47:19.877Z,3.27
2022-11-22T03:49:46.550Z,3.42
2022-11-22T03:52:12.824Z,3.45
2022-11-22T03:54:39.331Z,3.31
2022-11-22T03:57:05.820Z,3.16
2022-11-22T03:59:32.589Z,3.10
2022-11-22T04:01:59.479Z,3.24
2022-11-22T04:04:26.578Z,3.22
2022-11-22T04:06:53.015Z,3.11
2022-11-22T04:09:19.681Z,3.05
2022-11-22T04:11:46.090Z,3.19
2022-11-22T04:14:41.695Z,3.04
2022-11-22T04:17:07.821Z,2.82
2022-11-22T04:19:34.239Z,2.75
2022-11-22T04:22:00.328Z,2.92
2022-11-22T04:24:45.182Z,2.98
2022-11-22T04:27:11.303Z,3.07
2022-11-22T04:29:37.823Z,2.99
2022-11-22T04:32:22.667Z,3.14
2022-11-22T04:34:49.494Z,3.23
2022-11-22T04:37:15.682Z,3.28
2022-11-22T04:39:42.321Z,3.27
2022-11-22T04:42:27.387Z,3.31
2022-11-22T04:44:53.918Z,3.24
2022-11-22T04:47:38.566Z,3.28
2022-11-22T04:50:27.523Z,3.31
2022-11-22T04:52:55.826Z,3.12
2022-11-22T04:55:24.172Z,3.17
2022-11-22T04:57:53.213Z,3.19
2022-11-22T05:00:24.461Z,3.31
2022-11-22T05:02:50.866Z,3.33
2022-11-22T05:05:18.300Z,3.37
2022-11-22T05:07:44.516Z,3.19
2022-11-22T05:10:11.364Z,3.17
2022-11-22T05:12:37.435Z,3.09
2022-11-22T05:15:04.252Z,3.21
2022-11-22T05:17:30.476Z,3.27
2022-11-22T05:19:56.940Z,3.26
2022-11-22T05:22:47.449Z,3.03
2022-11-22T05:25:14.086Z,3.16
2022-11-22T05:27:40.235Z,3.10
2022-11-22T05:30:07.301Z,3.05
2022-11-22T05:32:33.705Z,3.03
2022-11-22T05:35:00.171Z,3.08
2022-11-22T05:37:26.317Z,3.10
2022-11-22T05:39:53.012Z,3.18
2022-11-22T05:42:19.145Z,3.08
2022-11-22T05:44:45.533Z,3.01
2022-11-22T05:47:12.017Z,3.10
2022-11-22T05:49:38.418Z,3.11
2022-11-22T05:52:04.808Z,3.30
2022-11-22T05:54:31.373Z,3.20
2022-11-22T05:56:58.161Z,3.16
2022-11-22T05:59:24.732Z,3.19
2022-11-22T06:01:51.043Z,3.03
2022-11-22T06:04:17.866Z,2.86
2022-11-22T06:06:46.450Z,3.05
2022-11-22T06:09:12.859Z,3.01
2022-11-22T06:11:39.019Z,3.21
2022-11-22T06:14:08.540Z,3.12
2022-11-22T06:16:34.732Z,3.12
2022-11-22T06:19:01.217Z,2.94
2022-11-22T06:21:28.026Z,2.88
2022-11-22T06:23:55.554Z,2.76
2022-11-22T06:26:23.973Z,2.59
2022-11-22T06:28:50.881Z,2.55
2022-11-22T06:31:18.480Z,2.48
2022-11-22T06:33:45.473Z,2.55
2022-11-22T06:36:19.064Z,2.63
2022-11-22T06:38:46.282Z,2.74
2022-11-22T06:41:15.402Z,2.84
2022-11-22T06:43:48.725Z,2.79
2022-11-22T06:46:17.313Z,2.86
2022-11-22T06:48:43.974Z,3.01
2022-11-22T06:51:19.008Z,2.97
2022-11-22T06:53:48.479Z,3.11
2022-11-22T06:56:37.067Z,3.13
2022-11-22T06:59:05.378Z,3.05
2022-11-22T07:01:33.696Z,3.12
2022-11-22T07:04:01.440Z,3.10
2022-11-22T07:06:30.173Z,3.25
2022-11-22T07:08:58.630Z,3.28
2022-11-22T07:11:27.388Z,3.38
2022-11-22T07:13:58.103Z,3.49
2022-11-22T07:16:27.632Z,3.56
2022-11-22T07:18:54.312Z,3.35
2022-11-22T07:21:23.033Z,3.31
2022-11-22T07:23:51.701Z,3.44
2022-11-22T07:26:20.420Z,3.42
2022-11-22T07:28:47.451Z,3.13
2022-11-22T07:31:15.812Z,3.08
2022-11-22T07:33:42.859Z,2.93
2022-11-22T07:36:17.338Z,3.15
2022-11-22T07:38:44.833Z,3.08
2022-11-22T07:41:11.147Z,3.03
2022-11-22T07:43:38.054Z,2.90
2022-11-22T07:46:32.285Z,2.94
2022-11-22T07:49:00.365Z,2.96
2022-11-22T07:51:27.096Z,3.17
2022-11-22T07:53:54.297Z,3.20
2022-11-22T07:56:20.479Z,3.28
2022-11-22T07:58:47.245Z,3.25
2022-11-22T08:01:16.064Z,3.43
2022-11-22T08:03:43.422Z,3.37
2022-11-22T08:06:11.611Z,3.53
2022-11-22T08:08:38.297Z,3.45
2022-11-22T08:11:05.719Z,3.44
2022-11-22T08:13:32.994Z,3.70
2022-11-22T08:16:12.308Z,3.58
2022-11-22T08:18:39.513Z,3.63
2022-11-22T08:21:08.968Z,3.54
2022-11-22T08:23:36.568Z,3.57
2022-11-22T08:26:04.222Z,3.69
2022-11-22T08:28:31.447Z,3.46
2022-11-22T08:31:03.368Z,3.49
2022-11-22T08:33:30.384Z,3.54
2022-11-22T08:35:56.736Z,3.60
2022-11-22T08:38:23.611Z,3.72
2022-11-22T08:40:50.344Z,3.71
2022-11-22T08:43:17.200Z,3.73
2022-11-22T08:45:45.663Z,3.69
2022-11-22T08:48:14.480Z,3.75
2022-11-22T08:50:59.007Z,3.45
2022-11-22T08:53:26.843Z,3.51
2022-11-22T08:55:54.197Z,3.56
2022-11-22T08:58:21.608Z,3.55
2022-11-22T09:00:48.201Z,3.54
2022-11-22T09:03:15.264Z,3.77
2022-11-22T09:08:31.283Z,3.76
2022-11-22T09:11:02.279Z,3.37
2022-11-22T09:13:29.677Z,3.77
2022-11-22T09:16:01.111Z,3.85
2022-11-22T09:18:27.794Z,3.78
2022-11-22T09:21:02.556Z,3.74
2022-11-22T09:23:30.660Z,3.65
2022-11-22T09:26:07.124Z,3.72
2022-11-22T09:28:34.468Z,3.73
2022-11-22T09:31:06.259Z,3.76
2022-11-22T09:33:34.157Z,4.04
2022-11-22T09:36:02.094Z,3.94
2022-11-22T09:38:29.598Z,4.05
2022-11-22T09:40:57.090Z,4.23
2022-11-22T09:43:31.772Z,4.38
2022-11-22T09:46:31.211Z,4.54
2022-11-22T09:49:12.919Z,4.24
2022-11-22T09:51:45.769Z,4.16
2022-11-22T09:54:26.338Z,4.04
2022-11-22T09:56:55.844Z,4.16
2022-11-22T09:59:28.845Z,4.03
2022-11-22T10:02:03.419Z,3.95
2022-11-22T10:04:43.500Z,4.14
2022-11-22T10:07:56.935Z,4.21
2022-11-22T10:10:34.018Z,4.32
2022-11-22T10:13:05.797Z,4.40
2022-11-22T10:15:44.152Z,4.49
2022-11-22T10:18:22.307Z,4.35
2022-11-22T10:20:49.459Z,4.44
2022-11-22T10:23:20.707Z,4.30
2022-11-22T10:26:02.105Z,4.11
2022-11-22T10:28:35.811Z,4.26
2022-11-22T10:31:14.271Z,4.22
2022-11-22T10:33:50.459Z,4.36
2022-11-22T10:36:29.283Z,4.25
2022-11-22T10:39:34.526Z,4.32
2022-11-22T10:42:14.240Z,4.44
2022-11-22T10:45:14.661Z,4.42
2022-11-22T10:48:17.923Z,4.52
2022-11-22T10:51:04.544Z,4.61
2022-11-22T10:53:43.249Z,4.59
2022-11-22T10:56:32.927Z,4.67
2022-11-22T10:59:28.716Z,4.63
2022-11-22T11:02:26.871Z,4.58
2022-11-22T11:04:57.075Z,4.77
2022-11-22T11:07:25.022Z,4.75
2022-11-22T11:10:11.478Z,4.65
2022-11-22T11:12:46.321Z,4.63
2022-11-22T11:15:37.338Z,4.68
2022-11-22T11:18:10.870Z,4.80
2022-11-22T11:20:41.574Z,4.69
2022-11-22T11:23:17.039Z,4.78
2022-11-22T11:25:46.416Z,4.84
2022-11-22T11:28:21.250Z,4.55
2022-11-22T11:31:21.413Z,4.87
2022-11-22T11:33:47.897Z,4.84
2022-11-22T11:36:22.725Z,4.90
2022-11-22T11:38:54.273Z,4.77
2022-11-22T11:41:25.602Z,4.93
2022-11-22T11:43:54.399Z,5.04
2022-11-22T11:46:57.259Z,4.93
2022-11-22T11:49:25.787Z,4.97
2022-11-22T11:52:02.936Z,5.07
2022-11-22T11:54:38.655Z,4.89
2022-11-22T11:57:19.042Z,4.93
2022-11-22T11:59:48.286Z,4.72
2022-11-22T12:02:24.044Z,4.88
2022-11-22T12:05:00.622Z,4.98
2022-11-22T12:07:33.377Z,5.01
2022-11-22T12:10:00.025Z,4.99
2022-11-22T12:12:29.215Z,5.10
2022-11-22T12:15:21.169Z,5.07
2022-11-22T12:18:24.128Z,5.10
2022-11-22T12:21:13.114Z,5.15
2022-11-22T12:23:50.711Z,5.27
2022-11-22T12:26:18.559Z,5.29
2022-11-22T12:28:46.770Z,5.30
2022-11-22T12:31:27.757Z,5.35
2022-11-22T12:33:58.974Z,5.42
2022-11-22T12:36:51.598Z,5.40
2022-11-22T12:39:25.507Z,5.41
2022-11-22T12:41:58.860Z,5.33
2022-11-22T12:44:26.323Z,5.42
2022-11-22T12:47:06.014Z,5.49
2022-11-22T12:49:44.159Z,5.50
2022-11-22T12:52:22.085Z,5.41
2022-11-22T12:54:54.949Z,5.40
2022-11-22T12:57:33.900Z,5.39
2022-11-22T13:00:27.271Z,5.39
2022-11-22T13:02:59.874Z,5.42
2022-11-22T13:05:32.882Z,5.53
2022-11-22T13:08:13.023Z,5.37
2022-11-22T13:11:05.543Z,5.42
2022-11-22T13:13:37.285Z,5.37
2022-11-22T13:16:08.523Z,5.44
2022-11-22T13:18:40.632Z,5.40
2022-11-22T13:21:40.240Z,5.43
2022-11-22T13:24:24.577Z,5.35
2022-11-22T13:27:28.817Z,5.36
2022-11-22T13:29:59.595Z,5.37
2022-11-22T13:32:34.612Z,5.48
2022-11-22T13:35:13.607Z,5.53
2022-11-22T13:37:50.213Z,5.45
2022-11-22T13:40:16.792Z,5.53
2022-11-22T13:42:43.666Z,5.57
2022-11-22T13:45:23.198Z,5.58
2022-11-22T13:47:51.299Z,5.47
2022-11-22T13:50:36.187Z,5.59
2022-11-22T13:53:28.770Z,5.52
2022-11-22T13:56:00.384Z,5.53
2022-11-22T13:58:27.315Z,5.57
2022-11-22T14:00:55.550Z,5.46
2022-11-22T14:03:31.639Z,5.40
2022-11-22T14:05:58.306Z,5.23
2022-11-22T14:08:40.726Z,5.16
2022-11-22T14:11:17.117Z,5.12
2022-11-22T14:14:02.809Z,5.28
2022-11-22T14:16:32.122Z,5.24
2022-11-22T14:19:19.702Z,5.23
2022-11-22T14:22:06.470Z,5.18
2022-11-22T14:25:00.686Z,5.26
2022-11-22T14:27:42.360Z,5.16
2022-11-22T14:30:37.052Z,5.08
2022-11-22T14:33:13.875Z,5.29
2022-11-22T14:36:06.816Z,5.41
2022-11-22T14:38:38.098Z,5.30
2022-11-22T14:41:43.328Z,5.33
2022-11-22T14:44:22.002Z,5.40
2022-11-22T14:46:55.872Z,5.46
2022-11-22T14:49:34.180Z,5.39
2022-11-22T14:52:01.034Z,5.36
2022-11-22T14:54:49.544Z,5.31
2022-11-22T14:57:20.179Z,5.18
2022-11-22T15:00:11.363Z,5.35
2022-11-22T15:03:11.749Z,5.32
2022-11-22T15:09:18.217Z,5.42
2022-11-22T15:09:42.117Z,5.39
2022-11-22T15:12:04.880Z,5.50
2022-11-22T15:14:50.210Z,5.49
2022-11-22T15:58:03.106Z,5.46
2022-11-22T16:00:29.981Z,5.39
2022-11-22T16:03:00.849Z,5.35
2022-11-22T16:06:07.929Z,5.35
2022-11-22T16:08:27.820Z,5.29
2022-11-22T16:10:59.634Z,5.26
2022-11-22T16:13:28.153Z,5.19
2022-11-22T16:16:05.509Z,5.35
2022-11-22T16:18:33.201Z,5.31
2022-11-22T16:21:03.445Z,5.22
2022-11-22T16:23:33.120Z,5.29
2022-11-22T16:26:18.485Z,5.28
2022-11-22T16:28:46.301Z,5.24
2022-11-22T16:31:15.768Z,5.31
2022-11-22T16:33:42.069Z,5.18
2022-11-22T16:36:11.519Z,5.39
2022-11-22T16:38:37.709Z,5.34
2022-11-22T16:41:05.520Z,5.22
2022-11-22T16:43:34.461Z,5.21
2022-11-22T16:46:02.287Z,5.20
2022-11-22T16:48:32.780Z,5.19
2022-11-22T16:51:06.207Z,5.10
2022-11-22T16:53:44.646Z,5.18
2022-11-22T16:56:17.832Z,5.25
2022-11-22T16:58:44.446Z,5.14
2022-11-22T17:01:15.260Z,5.10
2022-11-22T17:03:42.770Z,5.29
2022-11-22T17:06:21.135Z,5.37
2022-11-22T17:08:49.072Z,5.43
2022-11-22T17:11:18.722Z,5.49
2022-11-22T17:13:45.541Z,5.36
2022-11-22T17:16:13.464Z,5.12
2022-11-22T17:18:40.257Z,5.10
2022-11-22T17:21:17.747Z,5.05
2022-11-22T17:23:44.400Z,4.99
2022-11-22T17:26:11.134Z,5.01
2022-11-22T17:28:37.464Z,4.95
2022-11-22T17:31:11.515Z,5.10
2022-11-22T17:33:37.903Z,5.12
2022-11-22T17:36:05.993Z,5.15
2022-11-22T17:38:32.434Z,5.02
2022-11-22T17:40:59.526Z,5.13
2022-11-22T17:43:26.259Z,5.11
2022-11-22T17:45:53.099Z,5.08
2022-11-22T17:48:19.412Z,5.07
2022-11-22T17:50:46.049Z,5.14
2022-11-22T17:53:12.647Z,5.13
2022-11-22T17:56:08.570Z,4.90
2022-11-22T17:58:26.120Z,5.07
2022-11-22T18:01:01.870Z,5.04
2022-11-22T18:03:28.873Z,5.04
2022-11-22T18:05:55.731Z,5.11
2022-11-22T18:08:22.247Z,5.17
2022-11-22T18:10:56.196Z,5.29
2022-11-22T18:13:22.950Z,5.28
2022-11-22T18:15:57.349Z,5.19
2022-11-22T18:18:55.140Z,5.26
2022-11-22T18:21:17.466Z,5.18
2022-11-22T18:23:44.758Z,5.26
2022-11-22T18:29:38.618Z,5.16
2022-11-22T18:31:53.607Z,5.18
2022-11-22T18:34:22.308Z,5.29
2022-11-22T18:36:55.456Z,5.28
2022-11-22T18:39:24.625Z,5.25
2022-11-22T18:41:51.586Z,5.34
2022-11-22T18:44:18.104Z,5.15
2022-11-22T18:47:02.923Z,5.18
2022-11-22T18:49:29.812Z,5.28
2022-11-22T18:51:57.117Z,5.26
2022-11-22T18:54:28.667Z,5.30
2022-11-22T18:56:58.094Z,5.41
2022-11-22T18:59:24.386Z,5.44
2022-11-22T19:01:51.179Z,5.50
2022-11-22T19:04:17.647Z,5.52
2022-11-22T19:06:44.876Z,5.50
2022-11-22T19:09:11.649Z,5.54
2022-11-22T19:11:38.535Z,5.57
2022-11-22T19:14:05.025Z,5.48
2022-11-22T19:16:34.281Z,5.55
2022-11-22T19:19:03.828Z,5.60
2022-11-22T19:21:31.657Z,5.58
2022-11-22T19:24:01.125Z,5.63
2022-11-22T19:26:28.353Z,5.67
2022-11-22T19:28:55.943Z,5.70
2022-11-22T19:31:27.181Z,5.71
2022-11-22T19:33:53.740Z,5.69
2022-11-22T19:36:26.569Z,5.81
2022-11-22T19:38:57.771Z,5.76
2022-11-22T19:41:24.748Z,5.77
2022-11-22T19:43:52.355Z,5.67
2022-11-22T19:46:20.856Z,5.71
2022-11-22T19:48:52.027Z,5.73
2022-11-22T19:51:27.768Z,5.68
2022-11-22T19:54:01.954Z,5.65
2022-11-22T19:56:32.386Z,5.73
2022-11-22T19:59:06.097Z,5.76
2022-11-22T20:01:34.501Z,5.81
2022-11-22T20:04:05.038Z,5.81
2022-11-22T20:06:33.909Z,5.79
2022-11-22T20:09:01.308Z,5.80
2022-11-22T20:11:29.074Z,5.73
2022-11-22T20:13:55.890Z,5.61
2022-11-22T20:16:27.770Z,5.65
2022-11-22T20:18:59.083Z,5.65
2022-11-22T20:21:30.381Z,5.68
2022-11-22T20:24:15.619Z,5.55
2022-11-22T20:26:43.094Z,5.57
2022-11-22T20:29:29.064Z,5.68
2022-11-22T20:31:56.205Z,5.72
2022-11-22T20:34:29.986Z,5.57
2022-11-22T20:37:10.937Z,5.55
2022-11-22T20:39:37.333Z,5.56
2022-11-22T20:42:32.485Z,5.63
2022-11-22T20:44:53.792Z,5.64
2022-11-22T20:47:20.409Z,5.73
2022-11-22T20:49:46.580Z,5.74
2022-11-22T20:52:13.286Z,5.68
2022-11-22T20:54:39.486Z,5.77
2022-11-22T20:57:07.206Z,5.62
2022-11-22T20:59:34.472Z,5.74
2022-11-22T21:02:02.969Z,5.79
2022-11-22T21:04:31.657Z,5.66
2022-11-22T21:06:59.275Z,5.69
2022-11-22T21:09:33.856Z,5.71
2022-11-22T21:12:01.808Z,5.69
2022-11-22T21:14:28.725Z,5.77
2022-11-22T21:17:22.663Z,5.72
2022-11-22T21:19:56.079Z,5.77
2022-11-22T21:22:30.203Z,5.59
2022-11-22T21:25:22.353Z,5.68
2022-11-22T21:27:49.402Z,5.77
2022-11-22T21:30:17.029Z,5.64
2022-11-22T21:32:50.649Z,5.66
2022-11-22T21:35:17.164Z,5.66
2022-11-22T21:37:53.694Z,5.70
2022-11-22T21:40:20.285Z,5.78
2022-11-22T21:42:46.946Z,5.80
2022-11-22T21:45:13.357Z,5.81
2022-11-22T21:47:40.123Z,5.84
2022-11-22T21:50:11.458Z,5.88
2022-11-22T21:52:38.622Z,5.96
2022-11-22T21:55:05.285Z,5.86
2022-11-22T21:57:31.853Z,5.92
2022-11-22T21:59:58.040Z,5.95
2022-11-22T22:02:24.607Z,5.90
2022-11-22T22:04:51.593Z,5.89
2022-11-22T22:07:44.561Z,5.98
2022-11-22T22:10:05.274Z,6.00
2022-11-22T22:12:31.866Z,5.99
2022-11-22T22:14:58.092Z,6.01
2022-11-22T22:17:24.532Z,6.05
2022-11-22T22:19:51.684Z,6.02
2022-11-22T22:22:18.281Z,5.97
2022-11-22T22:24:44.438Z,6.05
2022-11-22T22:27:10.955Z,6.04
2022-11-22T22:29:37.167Z,6.05
2022-11-22T22:32:09.061Z,6.07
2022-11-22T22:34:36.624Z,6.06
2022-11-22T22:37:03.033Z,6.10
2022-11-22T22:39:29.621Z,6.05
2022-11-22T22:41:56.235Z,6.01
2022-11-22T22:44:22.497Z,5.95
2022-11-22T22:46:48.956Z,6.04
2022-11-22T22:49:15.118Z,6.16
2022-11-22T22:51:41.502Z,6.15
2022-11-22T22:54:09.507Z,6.07
2022-11-22T22:56:35.934Z,6.20
2022-11-22T22:59:04.423Z,6.32
2022-11-22T23:01:31.301Z,6.31
2022-11-22T23:03:59.070Z,6.30
2022-11-22T23:06:33.703Z,6.34
2022-11-22T23:09:00.276Z,6.27
2022-11-22T23:11:47.851Z,6.18
2022-11-22T23:14:16.810Z,6.18
2022-11-22T23:16:43.213Z,6.22
2022-11-22T23:19:10.917Z,6.13
2022-11-22T23:21:37.760Z,6.04
2022-11-22T23:24:05.255Z,6.10
2022-11-22T23:26:31.728Z,6.05
2022-11-22T23:28:59.011Z,6.11
2022-11-22T23:31:25.557Z,6.12
2022-11-22T23:33:51.736Z,6.12
2022-11-22T23:36:19.922Z,6.12
2022-11-22T23:38:46.247Z,6.30
2022-11-22T23:41:20.967Z,6.23
2022-11-22T23:43:51.942Z,6.22
2022-11-22T23:46:18.589Z,6.23
2022-11-22T23:48:46.425Z,6.24
2022-11-22T23:51:14.173Z,6.22
2022-11-22T23:53:40.299Z,6.19
2022-11-22T23:56:20.304Z,6.25
2022-11-22T23:58:48.203Z,6.21
